METAR Data
IDs: Format: Raw Decoded Include TAF

Data at: 1246 UTC 23 Sep 2018

KCEW 231153Z AUTO 00000KT 6SM BR CLR 21/20 A3001 RMK AO2 SLP160 T02110200 10228 20200 $
KCEW 231053Z AUTO 09003KT 7SM CLR 21/20 A3000 RMK AO2 SLP155 T02060200
KCEW 231017Z AUTO 00000KT 3SM BR FEW002 20/19 A2999 RMK AO2 T02000194
KCEW 231008Z AUTO 00000KT 1 3/4SM BR FEW002 21/19 A2999 RMK AO2 T02060194
KCEW 230953Z AUTO 00000KT 6SM BR CLR 21/19 A2998 RMK AO2 SLP150 T02060194
KCEW 230853Z AUTO 00000KT 8SM CLR 21/20 A2998 RMK AO2 SLP150 T02110200 56010
KCEW 230753Z AUTO 07003KT 8SM CLR 21/20 A2999 RMK AO2 SLP154 T02110200
KCEW 230653Z AUTO 00000KT 7SM CLR 22/20 A3000 RMK AO2 SLP154 T02170200
KCEW 230553Z AUTO 34004KT 10SM CLR 23/21 A3001 RMK AO2 SLP159 60000 T02280211 10272 20222 403280211 58009
KCEW 230453Z AUTO 00000KT 10SM CLR 23/21 A3002 RMK AO2 SLP162 T02280211
KCEW 230353Z AUTO 00000KT 10SM SCT110 24/21 A3004 RMK AO2 SLP167 T02390211
KCEW 230253Z AUTO 00000KT 10SM FEW110 24/21 A3004 RMK AO2 RAB0156E05 SLP168 P0000 60000 T02440211 50013
KCEW 230153Z AUTO 19003KT 10SM FEW055 BKN095 OVC120 26/21 A3005 RMK AO2 SLP171 T02560211
KCEW 230053Z AUTO VRB06KT 10SM BKN050 BKN070 26/21 A3003 RMK AO2 SLP164 T02560211
KCEW 222353Z AUTO 18004KT 10SM FEW050 FEW065 BKN120 27/21 A3000 RMK AO2 SLP156 T02720211 10328 20267 53006
KCEW 222253Z AUTO 18003KT 10SM CLR 29/22 A2999 RMK AO2 SLP153 T02940222
KCEW 222153Z AUTO 00000KT 10SM CLR 29/21 A2998 RMK AO2 LTG DSNT W SLP149 T02890211
KCEW 222053Z AUTO 00000KT 10SM CLR 27/21 A2998 RMK AO2 SLP149 T02720211 56019
KCEW 221953Z AUTO 17006KT 10SM FEW050 BKN100 BKN120 28/21 A3000 RMK AO2 LTG DSNT W SLP155 T02830211
KCEW 221853Z AUTO 14005KT 10SM FEW048 SCT055 BKN085 31/21 A3002 RMK AO2 SLP160 T03110206
KCEW 221753Z AUTO VRB03KT 10SM SCT043 BKN065 BKN080 31/23 A3004 RMK AO2 SLP168 T03060228 10322 20217 58014
KCEW 221653Z AUTO 10003KT 10SM SCT030 BKN047 BKN060 31/23 A3007 RMK AO2 SLP177 T03060228
KCEW 221649Z AUTO 00000KT 10SM SCT028 BKN043 BKN055 31/23 A3007 RMK AO2
KCEW 221628Z AUTO 07003KT 10SM BKN028 OVC037 31/23 A3008 RMK AO2 T03110228
KCEW 221553Z AUTO 10005KT 10SM FEW024 31/23 A3008 RMK AO2 SLP182 T03060233
KCEW 221453Z AUTO 06004KT 10SM CLR 29/23 A3008 RMK AO2 SLP182 T02890233 53005
KCEW 221353Z AUTO VRB03KT 10SM CLR 26/23 A3007 RMK AO2 SLP181 T02610228
KCEW 221253Z AUTO 08004KT 8SM CLR 24/22 A3006 RMK AO2 SLP177 T02390222
KCEW 221153Z AUTO 00000KT 3SM BR FEW003 22/21 A3006 RMK AO2 SLP178 70015 T02170206 10228 20211 53010
KCEW 221146Z AUTO 05003KT 3SM BR FEW003 21/21 A3006 RMK AO2 T02110206
KCEW 221138Z AUTO 00000KT 1 1/4SM BR FEW003 22/21 A3006 RMK AO2 VIS 1/2V3 T02170206
KCEW 221126Z AUTO 00000KT 1/2SM FG VV003 22/21 A3006 RMK AO2 T02170206
KCEW 221053Z AUTO 00000KT 4SM BR CLR 22/21 A3005 RMK AO2 SLP173 T02170206
KCEW 221028Z AUTO 00000KT 4SM BR CLR 21/20 A3004 RMK AO2 T02110200
KCEW 221021Z AUTO 00000KT 2SM BR FEW002 21/21 A3004 RMK AO2 VIS 1/2V5 T02110206
KCEW 221012Z AUTO 00000KT 1SM BR VV002 22/21 A3004 RMK AO2 VIS 1/4V3 T02170206
KCEW 220953Z AUTO 00000KT 3SM BR CLR 22/21 A3004 RMK AO2 SLP169 T02170211
KCEW 220949Z AUTO 00000KT 4SM BR CLR 22/21 A3004 RMK AO2
KCEW 220942Z AUTO 00000KT 2SM BR CLR 22/21 A3004 RMK AO2 T02170206
KCEW 220930Z AUTO 00000KT 3/4SM BR CLR 22/21 A3004 RMK AO2 T02170206
KCEW 220916Z AUTO 00000KT 1/2SM FG CLR 22/21 A3005 RMK AO2 VIS 1/4V5 T02170211
KCEW 220913Z AUTO 00000KT 1 1/4SM BR CLR 22/21 A3005 RMK AO2 VIS 1/4V5 T02220211
KCEW 220853Z AUTO 00000KT 5SM BR CLR 22/21 A3004 RMK AO2 SLP171 T02220211 58011
KCEW 220753Z AUTO 00000KT 5SM BR CLR 22/21 A3005 RMK AO2 SLP173 T02220211
KCEW 220702Z AUTO 08003KT 3SM BR CLR 22/21 A3006 RMK AO2 T02220211
KCEW 220653Z AUTO 00000KT 1 1/4SM BR CLR 22/21 A3007 RMK AO2 SLP180 T02220211
KCEW 220645Z AUTO 00000KT 1 3/4SM BR CLR 22/21 A3007 RMK AO2 T02220211
KCEW 220619Z AUTO 00000KT 3SM BR CLR 22/21 A3007 RMK AO2 T02220211
KCEW 220609Z AUTO 00000KT 1 3/4SM BR CLR 23/22 A3007 RMK AO2 T02280217
KCEW 220553Z AUTO 00000KT 4SM BR CLR 23/22 A3008 RMK AO2 SLP180 T02280217 10261 20222 403330222 58006
KCEW 220453Z AUTO 00000KT 5SM BR CLR 23/22 A3009 RMK AO2 SLP186 T02280217
KCEW 220253Z AUTO 00000KT 6SM BR CLR 23/22 A3009 RMK AO2 SLP187 T02330222 51020
KCEW 220153Z AUTO 00000KT 6SM BR CLR 24/23 A3008 RMK AO2 SLP180 T02390228
KCEW 220053Z AUTO 00000KT 10SM CLR 25/23 A3006 RMK AO2 SLP175 T02500233